createdAt,value
2022-09-18T00:01:35.195Z,12.03
2022-09-18T00:04:05.158Z,12.10
2022-09-18T00:06:35.053Z,11.99
2022-09-18T00:09:05.810Z,11.96
2022-09-18T00:11:37.897Z,11.93
2022-09-18T00:14:10.885Z,11.86
2022-09-18T00:16:39.544Z,11.84
2022-09-18T00:19:07.578Z,11.90
2022-09-18T00:21:37.282Z,12.01
2022-09-18T00:24:06.670Z,12.06
2022-09-18T00:26:35.453Z,11.94
2022-09-18T00:29:05.585Z,11.84
2022-09-18T00:31:36.156Z,11.84
2022-09-18T00:34:06.053Z,11.95
2022-09-18T00:36:35.184Z,11.86
2022-09-18T00:39:03.666Z,11.77
2022-09-18T00:41:33.861Z,11.76
2022-09-18T00:44:32.382Z,11.84
2022-09-18T00:47:07.879Z,11.87
2022-09-18T00:49:37.946Z,11.77
2022-09-18T00:52:06.275Z,11.73
2022-09-18T00:54:37.318Z,11.76
2022-09-18T00:57:08.852Z,11.77
2022-09-18T00:59:38.896Z,11.79
2022-09-18T01:02:07.353Z,11.79
2022-09-18T01:04:35.249Z,11.71
2022-09-18T01:07:11.466Z,11.68
2022-09-18T01:09:48.223Z,11.64
2022-09-18T01:12:28.794Z,11.65
2022-09-18T01:15:04.828Z,11.59
2022-09-18T01:17:40.004Z,11.60
2022-09-18T01:20:28.055Z,11.60
2022-09-18T01:23:14.927Z,11.62
2022-09-18T01:25:57.027Z,11.64
2022-09-18T01:28:32.847Z,11.61
2022-09-18T01:31:06.836Z,11.63
2022-09-18T01:33:43.080Z,11.64
2022-09-18T01:36:16.380Z,11.76
2022-09-18T01:38:50.215Z,11.66
2022-09-18T01:41:24.681Z,11.63
2022-09-18T01:43:59.781Z,11.73
2022-09-18T01:46:27.878Z,11.66
2022-09-18T01:49:00.092Z,11.63
2022-09-18T01:51:40.699Z,11.69
2022-09-18T01:54:15.581Z,11.64
2022-09-18T01:56:47.147Z,11.67
2022-09-18T01:59:22.897Z,11.69
2022-09-18T02:02:03.921Z,11.69
2022-09-18T02:04:39.697Z,11.72
2022-09-18T02:07:19.331Z,11.71
2022-09-18T02:09:48.388Z,11.72
2022-09-18T02:12:20.568Z,11.69
2022-09-18T02:14:56.494Z,11.73
2022-09-18T02:17:50.813Z,11.73
2022-09-18T02:20:22.016Z,11.68
2022-09-18T02:22:57.047Z,11.72
2022-09-18T02:25:28.471Z,11.69
2022-09-18T02:27:58.006Z,11.85
2022-09-18T02:30:28.848Z,11.78
2022-09-18T02:32:58.696Z,11.85
2022-09-18T02:35:37.502Z,11.81
2022-09-18T02:38:16.295Z,11.83
2022-09-18T02:40:55.945Z,11.80
2022-09-18T02:43:38.174Z,11.83
2022-09-18T02:46:18.287Z,11.82
2022-09-18T02:48:53.025Z,11.81
2022-09-18T02:51:31.766Z,11.89
2022-09-18T02:54:05.138Z,11.88
2022-09-18T02:56:39.535Z,11.92
2022-09-18T02:59:12.907Z,11.86
2022-09-18T03:01:45.604Z,11.85
2022-09-18T03:04:16.801Z,11.84
2022-09-18T03:06:57.358Z,11.81
2022-09-18T03:09:26.345Z,11.85
2022-09-18T03:11:55.825Z,11.92
2022-09-18T03:14:23.842Z,12.02
2022-09-18T03:16:53.011Z,11.97
2022-09-18T03:19:20.900Z,11.93
2022-09-18T03:21:51.040Z,11.95
2022-09-18T03:24:19.859Z,11.89
2022-09-18T03:26:49.582Z,12.09
2022-09-18T03:29:17.709Z,12.09
2022-09-18T03:31:45.770Z,12.10
2022-09-18T03:34:15.103Z,11.99
2022-09-18T03:36:47.074Z,11.91
2022-09-18T03:39:16.466Z,11.94
2022-09-18T03:41:45.241Z,11.93
2022-09-18T03:44:13.529Z,11.95
2022-09-18T03:46:43.336Z,11.96
2022-09-18T03:49:11.499Z,11.98
2022-09-18T03:51:42.949Z,11.99
2022-09-18T03:54:10.837Z,11.95
2022-09-18T03:57:05.097Z,11.99
2022-09-18T03:59:42.092Z,12.00
2022-09-18T04:02:27.174Z,11.93
2022-09-18T04:05:15.324Z,11.92
2022-09-18T04:08:05.141Z,12.02
2022-09-18T04:10:54.354Z,12.03
2022-09-18T04:13:22.230Z,12.01
2022-09-18T04:15:50.803Z,12.03
2022-09-18T04:18:20.774Z,12.03
2022-09-18T04:20:48.796Z,12.13
2022-09-18T04:23:18.469Z,12.06
2022-09-18T04:25:46.893Z,11.99
2022-09-18T04:28:14.763Z,12.02
2022-09-18T04:30:47.617Z,12.00
2022-09-18T04:33:16.145Z,12.02
2022-09-18T04:35:44.485Z,12.01
2022-09-18T04:38:12.618Z,12.03
2022-09-18T04:40:42.517Z,12.05
2022-09-18T04:43:11.595Z,12.10
2022-09-18T04:45:40.985Z,12.09
2022-09-18T04:48:08.838Z,12.14
2022-09-18T04:50:37.073Z,12.12
2022-09-18T04:53:16.608Z,12.11
2022-09-18T04:55:48.876Z,12.09
2022-09-18T04:58:18.761Z,12.06
2022-09-18T05:00:51.318Z,12.04
2022-09-18T05:03:22.418Z,12.02
2022-09-18T05:05:54.963Z,12.09
2022-09-18T05:08:23.405Z,12.15
2022-09-18T05:10:53.107Z,12.20
2022-09-18T05:13:23.978Z,12.14
2022-09-18T05:16:09.162Z,12.03
2022-09-18T05:18:37.387Z,11.99
2022-09-18T05:21:06.989Z,12.05
2022-09-18T05:23:35.689Z,12.03
2022-09-18T05:26:05.027Z,12.14
2022-09-18T05:28:33.655Z,12.10
2022-09-18T05:31:05.003Z,12.05
2022-09-18T05:33:41.158Z,12.02
2022-09-18T05:36:09.397Z,12.03
2022-09-18T05:38:39.836Z,12.07
2022-09-18T05:41:11.025Z,12.34
2022-09-18T05:43:39.119Z,12.19
2022-09-18T05:46:10.762Z,12.22
2022-09-18T05:48:49.433Z,12.22
2022-09-18T05:51:17.417Z,12.19
2022-09-18T05:53:48.304Z,12.17
2022-09-18T05:56:37.796Z,12.06
2022-09-18T05:59:05.631Z,12.20
2022-09-18T06:01:33.866Z,12.20
2022-09-18T06:04:18.298Z,12.12
2022-09-18T06:06:56.779Z,12.09
2022-09-18T06:09:24.666Z,12.21
2022-09-18T06:11:53.830Z,12.12
2022-09-18T06:14:23.100Z,12.16
2022-09-18T06:16:51.132Z,12.17
2022-09-18T06:19:19.035Z,12.20
2022-09-18T06:21:49.227Z,12.23
2022-09-18T06:24:19.658Z,12.23
2022-09-18T06:27:09.179Z,12.28
2022-09-18T06:29:36.937Z,12.35
2022-09-18T06:32:10.674Z,12.39
2022-09-18T06:34:40.310Z,12.44
2022-09-18T06:37:12.914Z,12.52
2022-09-18T06:39:41.037Z,12.55
2022-09-18T06:42:11.647Z,12.65
2022-09-18T06:44:58.023Z,12.64
2022-09-18T06:47:28.396Z,12.66
2022-09-18T06:49:56.798Z,12.67
2022-09-18T06:52:24.746Z,12.94
2022-09-18T06:54:56.065Z,12.81
2022-09-18T06:57:33.119Z,12.69
2022-09-18T07:00:05.014Z,12.70
2022-09-18T07:02:38.096Z,12.74
2022-09-18T07:05:27.605Z,12.75
2022-09-18T07:07:55.504Z,12.97
2022-09-18T07:10:24.872Z,12.92
2022-09-18T07:12:58.055Z,12.89
2022-09-18T07:15:26.881Z,12.87
2022-09-18T07:17:57.007Z,12.97
2022-09-18T07:20:25.229Z,12.90
2022-09-18T07:22:54.128Z,12.92
2022-09-18T07:25:23.505Z,12.98
2022-09-18T07:27:53.771Z,12.98
2022-09-18T07:30:23.666Z,13.00
2022-09-18T07:32:54.279Z,13.07
2022-09-18T07:35:26.739Z,13.30
2022-09-18T07:37:58.966Z,13.18
2022-09-18T07:40:40.236Z,13.24
2022-09-18T07:43:12.144Z,13.31
2022-09-18T07:45:49.025Z,13.28
2022-09-18T07:48:17.398Z,13.43
2022-09-18T07:50:49.164Z,13.40
2022-09-18T07:53:18.696Z,13.42
2022-09-18T07:55:49.677Z,13.40
2022-09-18T07:58:17.610Z,13.37
2022-09-18T08:00:53.143Z,13.35
2022-09-18T08:03:22.866Z,13.49
2022-09-18T08:06:17.674Z,13.45
2022-09-18T08:08:56.035Z,13.40
2022-09-18T08:11:56.465Z,13.45
2022-09-18T08:14:31.172Z,13.48
2022-09-18T08:17:19.899Z,13.43
2022-09-18T08:20:09.068Z,13.46
2022-09-18T08:22:55.185Z,13.56
2022-09-18T08:25:27.355Z,13.65
2022-09-18T08:27:55.684Z,13.56
2022-09-18T08:30:32.992Z,13.57
2022-09-18T08:33:07.266Z,13.62
2022-09-18T08:35:35.474Z,13.57
2022-09-18T08:38:16.529Z,13.55
2022-09-18T08:41:13.755Z,13.45
2022-09-18T08:43:50.181Z,13.52
2022-09-18T08:46:22.555Z,13.48
2022-09-18T08:49:02.554Z,13.40
2022-09-18T08:51:38.754Z,13.40
2022-09-18T08:54:21.370Z,13.51
2022-09-18T08:57:17.924Z,13.60
2022-09-18T09:00:03.516Z,13.68
2022-09-18T09:02:39.395Z,13.56
2022-09-18T09:05:12.408Z,13.60
2022-09-18T09:08:04.395Z,13.67
2022-09-18T09:10:43.802Z,13.82
2022-09-18T09:13:33.848Z,13.94
2022-09-18T09:16:09.232Z,14.09
2022-09-18T09:18:53.451Z,14.27
2022-09-18T09:21:25.628Z,14.42
2022-09-18T09:24:09.091Z,14.44
2022-09-18T09:26:58.025Z,14.44
2022-09-18T09:29:46.780Z,14.46
2022-09-18T09:32:41.367Z,14.50
2022-09-18T09:35:33.625Z,14.49
2022-09-18T09:38:38.366Z,14.61
2022-09-18T09:41:14.508Z,14.57
2022-09-18T09:43:48.482Z,14.50
2022-09-18T09:46:23.044Z,14.68
2022-09-18T09:48:58.040Z,14.74
2022-09-18T09:51:32.100Z,14.78
2022-09-18T09:54:04.022Z,14.82
2022-09-18T09:56:43.994Z,14.81
2022-09-18T09:59:23.534Z,14.81
2022-09-18T10:02:37.443Z,14.69
2022-09-18T10:05:18.235Z,14.65
2022-09-18T10:07:51.030Z,14.52
2022-09-18T10:10:30.856Z,14.56
2022-09-18T10:13:04.671Z,14.49
2022-09-18T10:15:38.698Z,14.48
2022-09-18T10:18:17.602Z,14.54
2022-09-18T10:20:48.170Z,14.53
2022-09-18T10:23:25.734Z,14.59
2022-09-18T10:26:01.792Z,14.62
2022-09-18T10:28:32.958Z,14.67
2022-09-18T10:31:06.439Z,14.80
2022-09-18T10:33:41.602Z,14.96
2022-09-18T10:36:25.851Z,15.20
2022-09-18T10:38:55.321Z,15.25
2022-09-18T10:41:43.139Z,15.40
2022-09-18T10:44:25.445Z,15.48
2022-09-18T10:47:04.842Z,15.44
2022-09-18T10:49:41.761Z,15.39
2022-09-18T10:52:31.352Z,15.48
2022-09-18T10:55:18.448Z,15.40
2022-09-18T10:58:14.742Z,15.34
2022-09-18T11:00:56.351Z,15.32
2022-09-18T11:03:41.582Z,15.39
2022-09-18T11:06:19.480Z,15.31
2022-09-18T11:08:50.356Z,15.30
2022-09-18T11:11:30.633Z,15.45
2022-09-18T11:14:06.744Z,15.42
2022-09-18T11:16:50.806Z,15.41
2022-09-18T11:19:27.598Z,15.49
2022-09-18T11:22:03.368Z,15.47
2022-09-18T11:24:46.617Z,15.51
2022-09-18T11:27:21.222Z,15.45
2022-09-18T11:29:51.409Z,15.49
2022-09-18T11:32:22.065Z,15.46
2022-09-18T11:34:53.938Z,15.38
2022-09-18T11:37:31.888Z,15.43
2022-09-18T11:40:06.021Z,15.29
2022-09-18T11:42:43.091Z,15.38
2022-09-18T11:45:29.609Z,15.24
2022-09-18T11:48:06.739Z,15.16
2022-09-18T11:50:38.478Z,15.16
2022-09-18T11:53:15.992Z,15.14
2022-09-18T11:55:49.675Z,15.07
2022-09-18T11:58:25.052Z,15.05
2022-09-18T12:01:06.181Z,15.05
2022-09-18T12:03:40.581Z,15.08
2022-09-18T12:06:15.348Z,15.05
2022-09-18T12:08:49.821Z,15.09
2022-09-18T12:11:26.177Z,15.12
2022-09-18T12:14:01.514Z,15.16
2022-09-18T12:16:43.991Z,15.06
2022-09-18T12:19:20.807Z,15.17
2022-09-18T12:21:56.975Z,14.95
2022-09-18T12:24:25.584Z,15.00
2022-09-18T12:27:09.088Z,15.08
2022-09-18T12:30:01.783Z,15.10
2022-09-18T12:32:54.421Z,15.11
2022-09-18T12:35:32.129Z,15.12
2022-09-18T12:38:13.226Z,15.17
2022-09-18T12:41:09.033Z,15.23
2022-09-18T12:43:52.664Z,15.23
2022-09-18T12:46:45.423Z,15.25
2022-09-18T12:49:29.448Z,15.21
2022-09-18T12:52:07.649Z,15.29
2022-09-18T12:54:48.940Z,15.33
2022-09-18T12:57:30.648Z,15.38
2022-09-18T13:00:04.805Z,15.48
2022-09-18T13:02:42.254Z,15.43
2022-09-18T13:05:18.064Z,15.40
2022-09-18T13:07:49.705Z,15.49
2022-09-18T13:10:21.753Z,15.44
2022-09-18T13:12:57.245Z,15.45
2022-09-18T13:15:29.300Z,15.47
2022-09-18T13:18:10.686Z,15.48
2022-09-18T13:20:44.200Z,15.49
2022-09-18T13:23:19.015Z,15.45
2022-09-18T13:25:49.365Z,15.41
2022-09-18T13:28:20.808Z,15.38
2022-09-18T13:30:51.951Z,15.34
2022-09-18T13:33:24.520Z,15.32
2022-09-18T13:35:57.616Z,15.32
2022-09-18T13:38:28.153Z,15.27
2022-09-18T13:41:03.791Z,15.26
2022-09-18T13:43:46.444Z,15.23
2022-09-18T13:46:39.403Z,15.31
2022-09-18T13:49:19.862Z,15.36
2022-09-18T13:51:49.054Z,15.25
2022-09-18T13:54:29.171Z,15.09
2022-09-18T13:57:19.740Z,15.10
2022-09-18T13:59:51.324Z,15.01
2022-09-18T14:02:38.109Z,14.98
2022-09-18T14:05:31.205Z,15.02
2022-09-18T14:08:35.985Z,15.02
2022-09-18T14:11:16.389Z,15.15
2022-09-18T14:13:52.389Z,14.99
2022-09-18T14:16:41.290Z,14.99
2022-09-18T14:19:30.885Z,14.94
2022-09-18T14:22:00.607Z,15.02
2022-09-18T14:24:56.196Z,15.02
2022-09-18T14:27:43.792Z,14.99
2022-09-18T14:30:30.903Z,14.83
2022-09-18T14:33:05.373Z,14.89
2022-09-18T14:35:37.965Z,14.71
2022-09-18T14:38:17.924Z,14.78
2022-09-18T14:40:58.543Z,14.77
2022-09-18T14:43:26.882Z,14.90
2022-09-18T14:45:55.762Z,14.82
2022-09-18T14:48:30.111Z,14.84
2022-09-18T14:51:06.116Z,14.69
2022-09-18T14:53:44.278Z,14.82
2022-09-18T14:56:18.299Z,14.70
2022-09-18T14:58:47.780Z,14.62
2022-09-18T15:01:18.238Z,14.76
2022-09-18T15:03:49.899Z,14.73
2022-09-18T15:06:21.075Z,14.69
2022-09-18T15:08:54.258Z,14.59
2022-09-18T15:11:34.713Z,14.82
2022-09-18T15:14:23.850Z,14.71
2022-09-18T15:16:56.167Z,14.79
2022-09-18T15:19:24.209Z,14.70
2022-09-18T15:21:52.671Z,14.79
2022-09-18T15:24:21.017Z,14.76
2022-09-18T15:26:56.106Z,14.57
2022-09-18T15:29:29.179Z,14.63
2022-09-18T15:31:57.654Z,14.74
2022-09-18T15:34:27.705Z,14.56
2022-09-18T15:37:00.599Z,14.55
2022-09-18T15:39:31.631Z,14.60
2022-09-18T15:42:17.412Z,14.54
2022-09-18T15:45:22.771Z,14.47
2022-09-18T15:47:51.159Z,14.62
2022-09-18T15:50:41.632Z,14.55
2022-09-18T15:53:30.613Z,14.49
2022-09-18T15:56:01.867Z,14.43
2022-09-18T15:58:37.170Z,14.57
2022-09-18T16:01:14.909Z,14.62
2022-09-18T16:03:43.441Z,14.54
2022-09-18T16:06:23.124Z,14.43
2022-09-18T16:08:55.013Z,14.49
2022-09-18T16:11:42.664Z,14.37
2022-09-18T16:14:47.267Z,14.32
2022-09-18T16:17:39.015Z,14.21
2022-09-18T16:20:38.847Z,14.23
2022-09-18T16:23:20.815Z,14.12
2022-09-18T16:26:05.863Z,14.31
2022-09-18T16:28:35.947Z,14.37
2022-09-18T16:31:05.592Z,14.20
2022-09-18T16:33:34.884Z,14.12
2022-09-18T16:36:06.559Z,13.98
2022-09-18T16:38:34.941Z,14.06
2022-09-18T16:41:03.420Z,14.02
2022-09-18T16:43:31.419Z,13.97
2022-09-18T16:45:59.185Z,13.96
2022-09-18T16:48:29.296Z,13.91
2022-09-18T16:50:57.129Z,14.02
2022-09-18T16:53:25.127Z,13.87
2022-09-18T16:55:56.672Z,13.82
2022-09-18T16:58:27.794Z,13.85
2022-09-18T17:00:55.845Z,13.81
2022-09-18T17:03:28.409Z,13.79
2022-09-18T17:05:56.338Z,13.70
2022-09-18T17:08:24.352Z,13.67
2022-09-18T17:10:52.219Z,13.60
2022-09-18T17:13:22.700Z,13.61
2022-09-18T17:15:52.826Z,13.63
2022-09-18T17:18:20.785Z,13.67
2022-09-18T17:20:49.913Z,13.67
2022-09-18T17:23:17.969Z,13.61
2022-09-18T17:25:45.893Z,13.75
2022-09-18T17:28:17.619Z,13.91
2022-09-18T17:30:45.814Z,13.81
2022-09-18T17:33:17.482Z,13.78
2022-09-18T17:35:47.683Z,13.68
2022-09-18T17:38:17.308Z,13.46
2022-09-18T17:40:56.685Z,13.25
2022-09-18T17:43:25.500Z,13.38
2022-09-18T17:45:57.388Z,13.38
2022-09-18T17:48:29.331Z,13.13
2022-09-18T17:50:58.667Z,13.18
2022-09-18T17:53:28.821Z,13.06
2022-09-18T17:55:59.967Z,13.00
2022-09-18T17:58:28.826Z,12.95
2022-09-18T18:00:57.228Z,13.08
2022-09-18T18:03:26.694Z,13.12
2022-09-18T18:05:57.605Z,13.14
2022-09-18T18:08:27.560Z,13.04
2022-09-18T18:10:55.957Z,12.96
2022-09-18T18:13:24.311Z,12.99
2022-09-18T18:15:53.734Z,12.96
2022-09-18T18:18:21.635Z,12.93
2022-09-18T18:20:54.052Z,12.92
2022-09-18T18:23:22.005Z,13.09
2022-09-18T18:25:51.240Z,12.97
2022-09-18T18:28:23.296Z,13.00
2022-09-18T18:31:02.662Z,12.98
2022-09-18T18:33:31.961Z,12.97
2022-09-18T18:36:08.344Z,12.97
2022-09-18T18:38:36.369Z,12.98
2022-09-18T18:41:06.667Z,12.94
2022-09-18T18:43:40.135Z,13.09
2022-09-18T18:46:09.319Z,12.86
2022-09-18T18:48:40.303Z,12.70
2022-09-18T18:51:10.429Z,12.57
2022-09-18T18:53:39.000Z,12.51
2022-09-18T18:56:09.872Z,12.39
2022-09-18T18:58:40.500Z,12.30
2022-09-18T19:01:10.697Z,12.19
2022-09-18T19:03:42.973Z,12.11
2022-09-18T19:06:11.134Z,12.06
2022-09-18T19:08:41.984Z,12.02
2022-09-18T19:11:11.959Z,12.02
2022-09-18T19:13:43.059Z,12.01
2022-09-18T19:16:11.707Z,11.90
2022-09-18T19:18:40.096Z,11.88
2022-09-18T19:21:08.299Z,11.89
2022-09-18T19:23:36.923Z,11.83
2022-09-18T19:26:05.000Z,11.75
2022-09-18T19:28:34.273Z,11.75
2022-09-18T19:31:04.994Z,11.80
2022-09-18T19:33:34.000Z,11.68
2022-09-18T19:36:06.062Z,11.63
2022-09-18T19:38:36.843Z,11.65
2022-09-18T19:41:10.227Z,11.64
2022-09-18T19:43:40.012Z,11.67
2022-09-18T19:46:11.187Z,11.74
2022-09-18T19:48:39.481Z,11.69
2022-09-18T19:51:08.935Z,11.51
2022-09-18T19:53:37.503Z,11.47
2022-09-18T19:56:22.627Z,11.47
2022-09-18T19:58:58.414Z,11.51
2022-09-18T20:01:26.315Z,11.53
2022-09-18T20:03:56.530Z,11.49
2022-09-18T20:06:24.449Z,11.50
2022-09-18T20:08:52.859Z,11.44
2022-09-18T20:11:20.588Z,11.44
2022-09-18T20:13:50.922Z,11.44
2022-09-18T20:16:21.084Z,11.44
2022-09-18T20:18:51.227Z,11.39
2022-09-18T20:21:20.338Z,11.38
2022-09-18T20:23:48.603Z,11.34
2022-09-18T20:26:19.380Z,11.34
2022-09-18T20:28:49.546Z,11.31
2022-09-18T20:31:17.975Z,11.34
2022-09-18T20:33:47.501Z,11.32
2022-09-18T20:36:15.735Z,11.29
2022-09-18T20:38:44.438Z,11.38
2022-09-18T20:41:14.801Z,11.36
2022-09-18T20:43:44.104Z,11.35
2022-09-18T20:46:15.675Z,11.32
2022-09-18T20:48:46.358Z,11.28
2022-09-18T20:51:18.242Z,11.18
2022-09-18T20:53:47.076Z,11.22
2022-09-18T20:56:16.306Z,11.22
2022-09-18T20:58:44.226Z,11.21
2022-09-18T21:01:14.371Z,11.17
2022-09-18T21:03:44.823Z,11.07
2022-09-18T21:06:22.889Z,11.24
2022-09-18T21:08:55.202Z,11.16
2022-09-18T21:11:25.039Z,11.03
2022-09-18T21:13:54.423Z,10.92
2022-09-18T21:16:23.139Z,10.90
2022-09-18T21:18:53.294Z,10.89
2022-09-18T21:21:22.698Z,10.85
2022-09-18T21:23:58.446Z,10.79
2022-09-18T21:26:31.512Z,10.87
2022-09-18T21:29:01.196Z,10.73
2022-09-18T21:31:30.321Z,10.67
2022-09-18T21:33:59.110Z,10.64
2022-09-18T21:36:28.872Z,10.60
2022-09-18T21:38:56.819Z,10.58
2022-09-18T21:41:26.143Z,10.42
2022-09-18T21:43:57.390Z,10.39
2022-09-18T21:46:25.285Z,10.40
2022-09-18T21:48:56.709Z,10.38
2022-09-18T21:51:24.493Z,10.26
2022-09-18T21:53:53.704Z,10.30
2022-09-18T21:56:21.736Z,10.39
2022-09-18T21:58:50.216Z,10.31
2022-09-18T22:01:20.264Z,10.21
2022-09-18T22:03:53.421Z,10.21
2022-09-18T22:06:25.875Z,10.35
2022-09-18T22:08:56.980Z,10.08
2022-09-18T22:11:26.597Z,9.98
2022-09-18T22:13:55.458Z,9.90
2022-09-18T22:16:24.210Z,9.97
2022-09-18T22:18:53.060Z,9.96
2022-09-18T22:21:23.518Z,9.86
2022-09-18T22:23:53.292Z,9.84
2022-09-18T22:26:23.450Z,9.84
2022-09-18T22:28:53.329Z,9.87
2022-09-18T22:31:22.291Z,9.84
2022-09-18T22:33:54.802Z,9.86
2022-09-18T22:36:22.986Z,9.92
2022-09-18T22:38:50.774Z,9.88
2022-09-18T22:41:19.467Z,9.84
2022-09-18T22:43:48.746Z,9.96
2022-09-18T22:46:17.971Z,10.10
2022-09-18T22:48:45.880Z,10.19
2022-09-18T22:51:16.273Z,10.23
2022-09-18T22:53:50.841Z,10.10
2022-09-18T22:56:20.457Z,10.17
2022-09-18T22:58:51.019Z,10.17
2022-09-18T23:01:21.809Z,10.18
2022-09-18T23:03:53.464Z,10.38
2022-09-18T23:06:25.382Z,10.25
2022-09-18T23:08:53.646Z,10.29
2022-09-18T23:11:23.370Z,10.04
2022-09-18T23:13:55.033Z,10.27
2022-09-18T23:16:24.428Z,10.19
2022-09-18T23:18:54.232Z,10.05
2022-09-18T23:21:23.096Z,10.14
2022-09-18T23:23:51.348Z,10.18
2022-09-18T23:26:23.164Z,10.11
2022-09-18T23:28:53.914Z,10.14
2022-09-18T23:31:25.572Z,9.96
2022-09-18T23:33:55.051Z,9.91
2022-09-18T23:36:27.664Z,9.89
2022-09-18T23:38:56.942Z,9.84
2022-09-18T23:41:25.961Z,9.81
2022-09-18T23:43:55.430Z,9.76
2022-09-18T23:46:24.618Z,9.91
2022-09-18T23:48:55.678Z,9.95
2022-09-18T23:51:24.877Z,9.88
2022-09-18T23:53:53.511Z,9.89
2022-09-18T23:56:23.480Z,10.04
2022-09-18T23:58:55.623Z,10.14
